sensor_id;sensor_type;location;lat;lon;timestamp;P1;durP1;ratioP1;P2;durP2;ratioP2
69750;SDS011;57335;52.288;6.056;2023-04-05T00:01:32;10.23;;;3.92;;
69750;SDS011;57335;52.288;6.056;2023-04-05T00:03:59;11.73;;;4.20;;
69750;SDS011;57335;52.288;6.056;2023-04-05T00:06:26;12.45;;;4.35;;
69750;SDS011;57335;52.288;6.056;2023-04-05T00:09:01;11.90;;;4.32;;
69750;SDS011;57335;52.288;6.056;2023-04-05T00:11:29;11.77;;;4.15;;
69750;SDS011;57335;52.288;6.056;2023-04-05T00:13:58;11.45;;;4.25;;
69750;SDS011;57335;52.288;6.056;2023-04-05T00:16:28;10.48;;;3.78;;
69750;SDS011;57335;52.288;6.056;2023-04-05T00:18:55;12.30;;;3.80;;
69750;SDS011;57335;52.288;6.056;2023-04-05T00:21:22;10.32;;;3.72;;
69750;SDS011;57335;52.288;6.056;2023-04-05T00:23:52;8.68;;;3.90;;
69750;SDS011;57335;52.288;6.056;2023-04-05T00:26:20;9.02;;;3.33;;
69750;SDS011;57335;52.288;6.056;2023-04-05T00:28:47;11.73;;;4.05;;
69750;SDS011;57335;52.288;6.056;2023-04-05T00:31:14;9.75;;;3.92;;
69750;SDS011;57335;52.288;6.056;2023-04-05T00:33:41;11.70;;;3.97;;
69750;SDS011;57335;52.288;6.056;2023-04-05T00:36:11;10.30;;;4.22;;
69750;SDS011;57335;52.288;6.056;2023-04-05T00:38:39;9.40;;;3.20;;
69750;SDS011;57335;52.288;6.056;2023-04-05T00:41:07;11.52;;;3.92;;
69750;SDS011;57335;52.288;6.056;2023-04-05T00:43:34;8.82;;;3.63;;
69750;SDS011;57335;52.288;6.056;2023-04-05T00:46:00;11.25;;;4.05;;
69750;SDS011;57335;52.288;6.056;2023-04-05T00:48:27;10.95;;;4.57;;
69750;SDS011;57335;52.288;6.056;2023-04-05T00:53:21;11.55;;;4.32;;
69750;SDS011;57335;52.288;6.056;2023-04-05T00:58:15;16.23;;;3.88;;
69750;SDS011;57335;52.288;6.056;2023-04-05T01:00:42;13.25;;;4.32;;
69750;SDS011;57335;52.288;6.056;2023-04-05T01:03:17;12.88;;;3.90;;
69750;SDS011;57335;52.288;6.056;2023-04-05T01:05:46;10.98;;;4.55;;
69750;SDS011;57335;52.288;6.056;2023-04-05T01:08:29;12.93;;;4.47;;
69750;SDS011;57335;52.288;6.056;2023-04-05T01:11:02;11.02;;;4.10;;
69750;SDS011;57335;52.288;6.056;2023-04-05T01:13:31;12.05;;;4.22;;
69750;SDS011;57335;52.288;6.056;2023-04-05T01:15:57;13.20;;;4.18;;
69750;SDS011;57335;52.288;6.056;2023-04-05T01:18:25;10.43;;;4.20;;
69750;SDS011;57335;52.288;6.056;2023-04-05T01:21:03;10.82;;;4.35;;
69750;SDS011;57335;52.288;6.056;2023-04-05T01:35:21;10.60;;;4.00;;
69750;SDS011;57335;52.288;6.056;2023-04-05T01:37:56;11.50;;;3.80;;
69750;SDS011;57335;52.288;6.056;2023-04-05T01:40:25;9.75;;;3.45;;
69750;SDS011;57335;52.288;6.056;2023-04-05T01:42:52;12.43;;;4.15;;
69750;SDS011;57335;52.288;6.056;2023-04-05T01:45:19;11.10;;;4.10;;
69750;SDS011;57335;52.288;6.056;2023-04-05T01:50:11;9.82;;;3.58;;
69750;SDS011;57335;52.288;6.056;2023-04-05T01:55:04;11.07;;;4.22;;
69750;SDS011;57335;52.288;6.056;2023-04-05T01:57:31;13.38;;;3.80;;
69750;SDS011;57335;52.288;6.056;2023-04-05T01:59:57;11.07;;;4.05;;
69750;SDS011;57335;52.288;6.056;2023-04-05T02:02:24;10.57;;;3.88;;
69750;SDS011;57335;52.288;6.056;2023-04-05T02:07:17;14.23;;;4.97;;
69750;SDS011;57335;52.288;6.056;2023-04-05T02:12:09;11.40;;;3.92;;
69750;SDS011;57335;52.288;6.056;2023-04-05T02:14:36;15.98;;;5.20;;
69750;SDS011;57335;52.288;6.056;2023-04-05T02:19:29;10.02;;;3.88;;
69750;SDS011;57335;52.288;6.056;2023-04-05T02:21:55;11.77;;;4.35;;
69750;SDS011;57335;52.288;6.056;2023-04-05T02:24:21;12.20;;;4.38;;
69750;SDS011;57335;52.288;6.056;2023-04-05T02:26:48;13.35;;;4.97;;
69750;SDS011;57335;52.288;6.056;2023-04-05T02:29:14;10.27;;;3.90;;
69750;SDS011;57335;52.288;6.056;2023-04-05T02:31:41;12.25;;;4.70;;
69750;SDS011;57335;52.288;6.056;2023-04-05T02:34:07;13.95;;;4.35;;
69750;SDS011;57335;52.288;6.056;2023-04-05T02:36:34;14.30;;;5.25;;
69750;SDS011;57335;52.288;6.056;2023-04-05T02:39:00;14.55;;;5.28;;
69750;SDS011;57335;52.288;6.056;2023-04-05T02:41:26;17.58;;;4.80;;
69750;SDS011;57335;52.288;6.056;2023-04-05T02:43:53;17.70;;;6.10;;
69750;SDS011;57335;52.288;6.056;2023-04-05T02:46:19;15.48;;;5.28;;
69750;SDS011;57335;52.288;6.056;2023-04-05T02:51:12;15.65;;;5.78;;
69750;SDS011;57335;52.288;6.056;2023-04-05T02:53:38;15.48;;;6.75;;
69750;SDS011;57335;52.288;6.056;2023-04-05T02:56:05;18.80;;;6.60;;
69750;SDS011;57335;52.288;6.056;2023-04-05T02:58:31;18.52;;;7.07;;
69750;SDS011;57335;52.288;6.056;2023-04-05T03:00:58;16.58;;;6.40;;
69750;SDS011;57335;52.288;6.056;2023-04-05T03:03:25;16.25;;;6.80;;
69750;SDS011;57335;52.288;6.056;2023-04-05T03:05:58;20.70;;;6.18;;
69750;SDS011;57335;52.288;6.056;2023-04-05T03:08:29;13.18;;;4.95;;
69750;SDS011;57335;52.288;6.056;2023-04-05T03:10:55;17.88;;;5.90;;
69750;SDS011;57335;52.288;6.056;2023-04-05T03:13:21;16.63;;;6.85;;
69750;SDS011;57335;52.288;6.056;2023-04-05T03:15:52;15.95;;;5.50;;
69750;SDS011;57335;52.288;6.056;2023-04-05T03:18:19;12.73;;;5.60;;
69750;SDS011;57335;52.288;6.056;2023-04-05T03:20:46;11.63;;;4.93;;
69750;SDS011;57335;52.288;6.056;2023-04-05T03:23:12;12.98;;;5.18;;
69750;SDS011;57335;52.288;6.056;2023-04-05T03:25:39;14.57;;;5.47;;
69750;SDS011;57335;52.288;6.056;2023-04-05T03:28:06;14.48;;;5.32;;
69750;SDS011;57335;52.288;6.056;2023-04-05T03:30:33;12.02;;;5.32;;
69750;SDS011;57335;52.288;6.056;2023-04-05T03:33:00;14.05;;;5.55;;
69750;SDS011;57335;52.288;6.056;2023-04-05T03:35:27;12.77;;;5.10;;
69750;SDS011;57335;52.288;6.056;2023-04-05T03:37:54;11.25;;;4.60;;
69750;SDS011;57335;52.288;6.056;2023-04-05T03:40:22;13.50;;;5.30;;
69750;SDS011;57335;52.288;6.056;2023-04-05T03:42:48;13.75;;;4.65;;
69750;SDS011;57335;52.288;6.056;2023-04-05T03:45:15;12.20;;;4.82;;
69750;SDS011;57335;52.288;6.056;2023-04-05T03:47:48;11.32;;;4.47;;
69750;SDS011;57335;52.288;6.056;2023-04-05T03:52:41;11.05;;;4.53;;
69750;SDS011;57335;52.288;6.056;2023-04-05T03:55:08;12.60;;;4.72;;
69750;SDS011;57335;52.288;6.056;2023-04-05T04:00:02;10.80;;;4.15;;
69750;SDS011;57335;52.288;6.056;2023-04-05T04:02:29;13.00;;;4.25;;
69750;SDS011;57335;52.288;6.056;2023-04-05T04:07:21;11.48;;;3.78;;
69750;SDS011;57335;52.288;6.056;2023-04-05T04:12:14;9.70;;;3.25;;
69750;SDS011;57335;52.288;6.056;2023-04-05T04:14:41;13.15;;;4.07;;
69750;SDS011;57335;52.288;6.056;2023-04-05T04:17:07;9.35;;;3.50;;
69750;SDS011;57335;52.288;6.056;2023-04-05T04:19:33;9.65;;;3.42;;
69750;SDS011;57335;52.288;6.056;2023-04-05T04:22:00;10.60;;;3.80;;
69750;SDS011;57335;52.288;6.056;2023-04-05T04:24:26;10.52;;;4.18;;
69750;SDS011;57335;52.288;6.056;2023-04-05T04:26:52;10.25;;;3.97;;
69750;SDS011;57335;52.288;6.056;2023-04-05T04:29:19;10.38;;;4.35;;
69750;SDS011;57335;52.288;6.056;2023-04-05T04:31:45;11.23;;;3.78;;
69750;SDS011;57335;52.288;6.056;2023-04-05T04:34:12;11.30;;;4.40;;
69750;SDS011;57335;52.288;6.056;2023-04-05T04:36:38;12.52;;;4.47;;
69750;SDS011;57335;52.288;6.056;2023-04-05T04:39:05;12.85;;;4.43;;
69750;SDS011;57335;52.288;6.056;2023-04-05T04:41:32;9.32;;;3.28;;
69750;SDS011;57335;52.288;6.056;2023-04-05T04:43:59;10.73;;;3.00;;
69750;SDS011;57335;52.288;6.056;2023-04-05T04:46:25;9.00;;;3.38;;
69750;SDS011;57335;52.288;6.056;2023-04-05T04:48:51;7.70;;;3.17;;
69750;SDS011;57335;52.288;6.056;2023-04-05T04:51:18;8.82;;;3.58;;
69750;SDS011;57335;52.288;6.056;2023-04-05T04:53:44;9.50;;;3.42;;
69750;SDS011;57335;52.288;6.056;2023-04-05T04:58:37;10.57;;;4.05;;
69750;SDS011;57335;52.288;6.056;2023-04-05T05:01:07;9.60;;;4.00;;
69750;SDS011;57335;52.288;6.056;2023-04-05T05:03:34;11.43;;;4.53;;
69750;SDS011;57335;52.288;6.056;2023-04-05T05:06:01;10.90;;;4.30;;
69750;SDS011;57335;52.288;6.056;2023-04-05T05:08:27;12.52;;;4.03;;
69750;SDS011;57335;52.288;6.056;2023-04-05T05:10:54;10.05;;;4.15;;
69750;SDS011;57335;52.288;6.056;2023-04-05T05:15:47;10.90;;;4.35;;
69750;SDS011;57335;52.288;6.056;2023-04-05T05:18:13;12.57;;;5.03;;
69750;SDS011;57335;52.288;6.056;2023-04-05T05:20:40;14.07;;;5.50;;
69750;SDS011;57335;52.288;6.056;2023-04-05T05:23:06;13.95;;;5.80;;
69750;SDS011;57335;52.288;6.056;2023-04-05T05:25:33;19.95;;;5.47;;
69750;SDS011;57335;52.288;6.056;2023-04-05T05:30:26;11.70;;;4.57;;
69750;SDS011;57335;52.288;6.056;2023-04-05T05:32:52;9.85;;;4.22;;
69750;SDS011;57335;52.288;6.056;2023-04-05T05:37:45;11.73;;;4.05;;
69750;SDS011;57335;52.288;6.056;2023-04-05T05:40:11;11.65;;;3.88;;
69750;SDS011;57335;52.288;6.056;2023-04-05T05:42:38;10.18;;;4.05;;
69750;SDS011;57335;52.288;6.056;2023-04-05T05:45:04;10.35;;;3.85;;
69750;SDS011;57335;52.288;6.056;2023-04-05T05:47:31;10.73;;;3.88;;
69750;SDS011;57335;52.288;6.056;2023-04-05T05:49:58;10.23;;;4.15;;
69750;SDS011;57335;52.288;6.056;2023-04-05T05:54:50;10.38;;;4.28;;
69750;SDS011;57335;52.288;6.056;2023-04-05T05:57:17;13.70;;;4.70;;
69750;SDS011;57335;52.288;6.056;2023-04-05T05:59:43;13.65;;;4.22;;
69750;SDS011;57335;52.288;6.056;2023-04-05T06:02:11;12.73;;;4.25;;
69750;SDS011;57335;52.288;6.056;2023-04-05T06:04:37;10.98;;;4.53;;
69750;SDS011;57335;52.288;6.056;2023-04-05T06:07:04;10.63;;;4.40;;
69750;SDS011;57335;52.288;6.056;2023-04-05T06:09:30;8.82;;;4.10;;
69750;SDS011;57335;52.288;6.056;2023-04-05T06:11:56;10.00;;;4.35;;
69750;SDS011;57335;52.288;6.056;2023-04-05T06:14:23;12.30;;;5.20;;
69750;SDS011;57335;52.288;6.056;2023-04-05T06:16:50;10.90;;;4.72;;
69750;SDS011;57335;52.288;6.056;2023-04-05T06:19:17;11.32;;;4.93;;
69750;SDS011;57335;52.288;6.056;2023-04-05T06:21:43;14.05;;;4.97;;
69750;SDS011;57335;52.288;6.056;2023-04-05T06:24:09;10.35;;;4.68;;
69750;SDS011;57335;52.288;6.056;2023-04-05T06:26:36;15.25;;;4.85;;
69750;SDS011;57335;52.288;6.056;2023-04-05T06:29:02;11.18;;;4.50;;
69750;SDS011;57335;52.288;6.056;2023-04-05T06:31:32;12.13;;;5.50;;
69750;SDS011;57335;52.288;6.056;2023-04-05T06:34:00;11.15;;;5.25;;
69750;SDS011;57335;52.288;6.056;2023-04-05T06:36:28;12.10;;;5.60;;
69750;SDS011;57335;52.288;6.056;2023-04-05T06:38:56;11.80;;;6.30;;
69750;SDS011;57335;52.288;6.056;2023-04-05T06:41:22;11.73;;;5.63;;
69750;SDS011;57335;52.288;6.056;2023-04-05T06:43:49;11.68;;;5.70;;
69750;SDS011;57335;52.288;6.056;2023-04-05T06:46:15;12.70;;;6.05;;
69750;SDS011;57335;52.288;6.056;2023-04-05T06:48:42;12.70;;;5.45;;
69750;SDS011;57335;52.288;6.056;2023-04-05T06:51:08;11.52;;;6.47;;
69750;SDS011;57335;52.288;6.056;2023-04-05T06:53:35;11.15;;;6.07;;
69750;SDS011;57335;52.288;6.056;2023-04-05T06:56:01;11.98;;;6.32;;
69750;SDS011;57335;52.288;6.056;2023-04-05T06:58:27;13.40;;;6.30;;
69750;SDS011;57335;52.288;6.056;2023-04-05T07:00:54;12.95;;;6.13;;
69750;SDS011;57335;52.288;6.056;2023-04-05T07:03:20;14.40;;;6.97;;
69750;SDS011;57335;52.288;6.056;2023-04-05T07:05:51;11.52;;;6.40;;
69750;SDS011;57335;52.288;6.056;2023-04-05T07:08:19;11.38;;;6.78;;
69750;SDS011;57335;52.288;6.056;2023-04-05T07:10:46;12.95;;;6.70;;
69750;SDS011;57335;52.288;6.056;2023-04-05T07:13:13;11.43;;;6.28;;
69750;SDS011;57335;52.288;6.056;2023-04-05T07:15:40;11.77;;;6.65;;
69750;SDS011;57335;52.288;6.056;2023-04-05T07:18:06;11.60;;;6.90;;
69750;SDS011;57335;52.288;6.056;2023-04-05T07:20:33;11.57;;;6.75;;
69750;SDS011;57335;52.288;6.056;2023-04-05T07:22:59;11.55;;;6.72;;
69750;SDS011;57335;52.288;6.056;2023-04-05T07:25:26;13.38;;;6.75;;
69750;SDS011;57335;52.288;6.056;2023-04-05T07:27:52;11.40;;;6.78;;
69750;SDS011;57335;52.288;6.056;2023-04-05T07:30:18;12.18;;;6.53;;
69750;SDS011;57335;52.288;6.056;2023-04-05T07:32:45;14.27;;;7.50;;
69750;SDS011;57335;52.288;6.056;2023-04-05T07:35:11;11.55;;;7.15;;
69750;SDS011;57335;52.288;6.056;2023-04-05T07:37:38;11.43;;;7.05;;
69750;SDS011;57335;52.288;6.056;2023-04-05T07:40:04;12.63;;;6.55;;
69750;SDS011;57335;52.288;6.056;2023-04-05T07:42:31;12.88;;;6.82;;
69750;SDS011;57335;52.288;6.056;2023-04-05T07:44:58;11.60;;;7.20;;
69750;SDS011;57335;52.288;6.056;2023-04-05T07:47:24;13.18;;;6.90;;
69750;SDS011;57335;52.288;6.056;2023-04-05T07:49:51;12.63;;;6.80;;
69750;SDS011;57335;52.288;6.056;2023-04-05T07:52:17;13.10;;;7.05;;
69750;SDS011;57335;52.288;6.056;2023-04-05T07:54:43;11.60;;;6.82;;
69750;SDS011;57335;52.288;6.056;2023-04-05T07:57:15;11.77;;;6.68;;
69750;SDS011;57335;52.288;6.056;2023-04-05T07:59:44;12.35;;;7.13;;
69750;SDS011;57335;52.288;6.056;2023-04-05T08:02:10;11.32;;;6.88;;
69750;SDS011;57335;52.288;6.056;2023-04-05T08:04:40;11.77;;;6.93;;
69750;SDS011;57335;52.288;6.056;2023-04-05T08:07:06;11.43;;;6.82;;
69750;SDS011;57335;52.288;6.056;2023-04-05T08:09:34;12.57;;;6.75;;
69750;SDS011;57335;52.288;6.056;2023-04-05T08:12:00;11.68;;;6.93;;
69750;SDS011;57335;52.288;6.056;2023-04-05T08:14:27;11.20;;;6.38;;
69750;SDS011;57335;52.288;6.056;2023-04-05T08:16:54;11.23;;;7.07;;
69750;SDS011;57335;52.288;6.056;2023-04-05T08:19:20;11.25;;;7.03;;
69750;SDS011;57335;52.288;6.056;2023-04-05T08:21:46;13.73;;;7.28;;
69750;SDS011;57335;52.288;6.056;2023-04-05T08:24:13;10.85;;;6.75;;
69750;SDS011;57335;52.288;6.056;2023-04-05T08:26:39;13.80;;;7.60;;
69750;SDS011;57335;52.288;6.056;2023-04-05T08:29:06;10.80;;;6.53;;
69750;SDS011;57335;52.288;6.056;2023-04-05T08:31:32;12.23;;;7.07;;
69750;SDS011;57335;52.288;6.056;2023-04-05T08:33:59;11.63;;;6.35;;
69750;SDS011;57335;52.288;6.056;2023-04-05T08:36:25;11.23;;;6.45;;
69750;SDS011;57335;52.288;6.056;2023-04-05T08:38:51;10.85;;;7.00;;
69750;SDS011;57335;52.288;6.056;2023-04-05T08:41:19;11.93;;;6.53;;
69750;SDS011;57335;52.288;6.056;2023-04-05T08:44:21;10.15;;;6.75;;
69750;SDS011;57335;52.288;6.056;2023-04-05T08:46:40;13.40;;;6.55;;
69750;SDS011;57335;52.288;6.056;2023-04-05T08:49:09;10.82;;;6.65;;
69750;SDS011;57335;52.288;6.056;2023-04-05T08:51:35;11.25;;;6.70;;
69750;SDS011;57335;52.288;6.056;2023-04-05T08:54:02;10.80;;;6.05;;
69750;SDS011;57335;52.288;6.056;2023-04-05T08:56:33;10.13;;;5.90;;
69750;SDS011;57335;52.288;6.056;2023-04-05T08:59:04;10.45;;;5.90;;
69750;SDS011;57335;52.288;6.056;2023-04-05T09:01:33;10.75;;;6.43;;
69750;SDS011;57335;52.288;6.056;2023-04-05T09:04:06;11.02;;;6.07;;
69750;SDS011;57335;52.288;6.056;2023-04-05T09:06:37;11.00;;;5.63;;
69750;SDS011;57335;52.288;6.056;2023-04-05T09:09:05;10.23;;;5.60;;
69750;SDS011;57335;52.288;6.056;2023-04-05T09:11:32;9.88;;;5.63;;
69750;SDS011;57335;52.288;6.056;2023-04-05T09:14:03;10.18;;;5.35;;
69750;SDS011;57335;52.288;6.056;2023-04-05T09:16:37;9.43;;;4.95;;
69750;SDS011;57335;52.288;6.056;2023-04-05T09:19:05;10.27;;;5.28;;
69750;SDS011;57335;52.288;6.056;2023-04-05T09:24:38;9.43;;;4.90;;
69750;SDS011;57335;52.288;6.056;2023-04-05T09:27:10;10.27;;;5.18;;
69750;SDS011;57335;52.288;6.056;2023-04-05T09:29:39;8.95;;;4.32;;
69750;SDS011;57335;52.288;6.056;2023-04-05T09:32:07;10.25;;;4.65;;
69750;SDS011;57335;52.288;6.056;2023-04-05T09:34:35;8.65;;;3.50;;
69750;SDS011;57335;52.288;6.056;2023-04-05T09:37:02;9.43;;;4.75;;
69750;SDS011;57335;52.288;6.056;2023-04-05T09:39:37;9.10;;;4.43;;
69750;SDS011;57335;52.288;6.056;2023-04-05T09:42:04;8.65;;;4.60;;
69750;SDS011;57335;52.288;6.056;2023-04-05T09:44:48;9.20;;;4.10;;
69750;SDS011;57335;52.288;6.056;2023-04-05T09:47:16;8.95;;;4.53;;
69750;SDS011;57335;52.288;6.056;2023-04-05T09:49:43;10.43;;;4.60;;
69750;SDS011;57335;52.288;6.056;2023-04-05T09:52:19;9.10;;;4.47;;
69750;SDS011;57335;52.288;6.056;2023-04-05T09:54:47;9.95;;;4.20;;
69750;SDS011;57335;52.288;6.056;2023-04-05T09:57:18;9.52;;;4.70;;
69750;SDS011;57335;52.288;6.056;2023-04-05T09:59:45;8.82;;;4.53;;
69750;SDS011;57335;52.288;6.056;2023-04-05T10:02:12;10.52;;;4.93;;
69750;SDS011;57335;52.288;6.056;2023-04-05T10:04:40;10.65;;;4.80;;
69750;SDS011;57335;52.288;6.056;2023-04-05T10:07:07;9.05;;;4.75;;
69750;SDS011;57335;52.288;6.056;2023-04-05T10:09:35;9.60;;;4.70;;
69750;SDS011;57335;52.288;6.056;2023-04-05T10:12:01;10.25;;;4.63;;
69750;SDS011;57335;52.288;6.056;2023-04-05T10:14:29;10.50;;;4.50;;
69750;SDS011;57335;52.288;6.056;2023-04-05T10:17:43;10.05;;;4.50;;
69750;SDS011;57335;52.288;6.056;2023-04-05T10:19:53;11.57;;;4.60;;
69750;SDS011;57335;52.288;6.056;2023-04-05T10:25:16;10.00;;;4.30;;
69750;SDS011;57335;52.288;6.056;2023-04-05T10:27:54;9.68;;;4.68;;
69750;SDS011;57335;52.288;6.056;2023-04-05T10:30:30;8.52;;;4.28;;
69750;SDS011;57335;52.288;6.056;2023-04-05T10:33:03;9.48;;;4.10;;
69750;SDS011;57335;52.288;6.056;2023-04-05T10:35:40;9.52;;;4.32;;
69750;SDS011;57335;52.288;6.056;2023-04-05T10:38:20;10.50;;;4.75;;
69750;SDS011;57335;52.288;6.056;2023-04-05T10:40:52;9.00;;;4.60;;
69750;SDS011;57335;52.288;6.056;2023-04-05T10:43:20;8.98;;;4.60;;
69750;SDS011;57335;52.288;6.056;2023-04-05T10:45:51;9.90;;;4.38;;
69750;SDS011;57335;52.288;6.056;2023-04-05T10:48:22;9.02;;;3.88;;
69750;SDS011;57335;52.288;6.056;2023-04-05T10:50:54;9.15;;;4.38;;
69750;SDS011;57335;52.288;6.056;2023-04-05T10:53:23;9.05;;;4.10;;
69750;SDS011;57335;52.288;6.056;2023-04-05T10:55:50;9.80;;;4.45;;
69750;SDS011;57335;52.288;6.056;2023-04-05T10:58:18;11.70;;;4.88;;
69750;SDS011;57335;52.288;6.056;2023-04-05T11:00:46;9.40;;;4.40;;
69750;SDS011;57335;52.288;6.056;2023-04-05T11:08:47;11.07;;;4.20;;
69750;SDS011;57335;52.288;6.056;2023-04-05T11:11:17;8.52;;;4.03;;
69750;SDS011;57335;52.288;6.056;2023-04-05T11:13:51;8.95;;;4.07;;
69750;SDS011;57335;52.288;6.056;2023-04-05T11:16:19;11.38;;;4.70;;
69750;SDS011;57335;52.288;6.056;2023-04-05T11:18:46;9.48;;;4.40;;
69750;SDS011;57335;52.288;6.056;2023-04-05T11:21:23;10.75;;;4.13;;
69750;SDS011;57335;52.288;6.056;2023-04-05T11:24:07;9.50;;;4.10;;
69750;SDS011;57335;52.288;6.056;2023-04-05T11:29:10;9.82;;;4.57;;
69750;SDS011;57335;52.288;6.056;2023-04-05T11:31:48;10.25;;;4.43;;
69750;SDS011;57335;52.288;6.056;2023-04-05T11:34:34;9.73;;;4.05;;
69750;SDS011;57335;52.288;6.056;2023-04-05T11:37:01;9.63;;;4.43;;
69750;SDS011;57335;52.288;6.056;2023-04-05T11:39:28;11.02;;;4.32;;
69750;SDS011;57335;52.288;6.056;2023-04-05T11:41:58;10.93;;;4.80;;
69750;SDS011;57335;52.288;6.056;2023-04-05T11:47:09;11.25;;;4.90;;
69750;SDS011;57335;52.288;6.056;2023-04-05T11:49:36;9.52;;;4.32;;
69750;SDS011;57335;52.288;6.056;2023-04-05T11:52:16;9.32;;;4.40;;
69750;SDS011;57335;52.288;6.056;2023-04-05T11:54:44;9.82;;;4.82;;
69750;SDS011;57335;52.288;6.056;2023-04-05T11:57:12;11.05;;;4.97;;
69750;SDS011;57335;52.288;6.056;2023-04-05T11:59:39;10.60;;;5.13;;
69750;SDS011;57335;52.288;6.056;2023-04-05T12:02:05;10.95;;;5.13;;
69750;SDS011;57335;52.288;6.056;2023-04-05T12:04:32;12.52;;;5.30;;
69750;SDS011;57335;52.288;6.056;2023-04-05T12:10:04;9.55;;;5.13;;
69750;SDS011;57335;52.288;6.056;2023-04-05T12:12:35;12.93;;;5.03;;
69750;SDS011;57335;52.288;6.056;2023-04-05T12:15:03;9.02;;;4.20;;
69750;SDS011;57335;52.288;6.056;2023-04-05T12:17:41;9.25;;;4.55;;
69750;SDS011;57335;52.288;6.056;2023-04-05T12:20:12;9.95;;;4.80;;
69750;SDS011;57335;52.288;6.056;2023-04-05T12:22:41;11.07;;;4.85;;
69750;SDS011;57335;52.288;6.056;2023-04-05T12:25:08;12.43;;;4.65;;
69750;SDS011;57335;52.288;6.056;2023-04-05T12:27:36;9.73;;;4.60;;
69750;SDS011;57335;52.288;6.056;2023-04-05T12:30:04;11.98;;;4.85;;
69750;SDS011;57335;52.288;6.056;2023-04-05T12:32:43;10.32;;;5.03;;
69750;SDS011;57335;52.288;6.056;2023-04-05T12:35:16;10.20;;;4.53;;
69750;SDS011;57335;52.288;6.056;2023-04-05T12:40:12;10.45;;;4.40;;
69750;SDS011;57335;52.288;6.056;2023-04-05T12:42:39;10.57;;;4.05;;
69750;SDS011;57335;52.288;6.056;2023-04-05T12:45:08;10.57;;;4.30;;
69750;SDS011;57335;52.288;6.056;2023-04-05T12:47:51;10.07;;;4.40;;
69750;SDS011;57335;52.288;6.056;2023-04-05T12:50:26;11.50;;;4.72;;
69750;SDS011;57335;52.288;6.056;2023-04-05T12:55:22;11.35;;;4.57;;
69750;SDS011;57335;52.288;6.056;2023-04-05T12:57:49;10.25;;;4.70;;
69750;SDS011;57335;52.288;6.056;2023-04-05T13:00:17;9.10;;;4.35;;
69750;SDS011;57335;52.288;6.056;2023-04-05T13:02:47;9.23;;;4.13;;
69750;SDS011;57335;52.288;6.056;2023-04-05T13:05:14;9.48;;;4.43;;
69750;SDS011;57335;52.288;6.056;2023-04-05T13:07:41;9.40;;;4.60;;
69750;SDS011;57335;52.288;6.056;2023-04-05T13:10:07;10.63;;;4.40;;
69750;SDS011;57335;52.288;6.056;2023-04-05T13:12:34;10.40;;;4.95;;
69750;SDS011;57335;52.288;6.056;2023-04-05T13:15:00;9.55;;;4.22;;
69750;SDS011;57335;52.288;6.056;2023-04-05T13:17:27;10.50;;;4.60;;
69750;SDS011;57335;52.288;6.056;2023-04-05T13:19:53;10.77;;;4.25;;
69750;SDS011;57335;52.288;6.056;2023-04-05T13:22:20;9.73;;;4.40;;
69750;SDS011;57335;52.288;6.056;2023-04-05T13:24:46;10.35;;;4.53;;
69750;SDS011;57335;52.288;6.056;2023-04-05T13:27:12;10.20;;;4.55;;
69750;SDS011;57335;52.288;6.056;2023-04-05T13:29:39;10.10;;;4.50;;
69750;SDS011;57335;52.288;6.056;2023-04-05T13:32:05;9.02;;;4.10;;
69750;SDS011;57335;52.288;6.056;2023-04-05T13:34:32;10.38;;;4.40;;
69750;SDS011;57335;52.288;6.056;2023-04-05T13:36:58;8.68;;;4.30;;
69750;SDS011;57335;52.288;6.056;2023-04-05T13:39:24;10.73;;;4.50;;
69750;SDS011;57335;52.288;6.056;2023-04-05T13:41:51;9.30;;;4.43;;
69750;SDS011;57335;52.288;6.056;2023-04-05T13:44:17;9.90;;;4.43;;
69750;SDS011;57335;52.288;6.056;2023-04-05T13:46:44;13.82;;;4.38;;
69750;SDS011;57335;52.288;6.056;2023-04-05T13:49:10;10.00;;;4.68;;
69750;SDS011;57335;52.288;6.056;2023-04-05T13:51:36;11.23;;;4.22;;
69750;SDS011;57335;52.288;6.056;2023-04-05T13:54:03;9.93;;;4.10;;
69750;SDS011;57335;52.288;6.056;2023-04-05T13:56:29;10.10;;;4.60;;
69750;SDS011;57335;52.288;6.056;2023-04-05T13:58:55;12.00;;;4.18;;
69750;SDS011;57335;52.288;6.056;2023-04-05T14:01:22;10.18;;;4.00;;
69750;SDS011;57335;52.288;6.056;2023-04-05T14:03:49;9.43;;;4.20;;
69750;SDS011;57335;52.288;6.056;2023-04-05T14:06:15;9.50;;;4.30;;
69750;SDS011;57335;52.288;6.056;2023-04-05T14:08:42;9.98;;;4.30;;
69750;SDS011;57335;52.288;6.056;2023-04-05T14:11:08;9.25;;;4.28;;
69750;SDS011;57335;52.288;6.056;2023-04-05T14:13:34;10.75;;;4.68;;
69750;SDS011;57335;52.288;6.056;2023-04-05T14:16:01;10.52;;;5.10;;
69750;SDS011;57335;52.288;6.056;2023-04-05T14:18:27;9.00;;;4.25;;
69750;SDS011;57335;52.288;6.056;2023-04-05T14:20:54;9.13;;;3.85;;
69750;SDS011;57335;52.288;6.056;2023-04-05T14:23:20;8.45;;;3.55;;
69750;SDS011;57335;52.288;6.056;2023-04-05T14:25:47;15.02;;;6.25;;
69750;SDS011;57335;52.288;6.056;2023-04-05T14:28:14;10.00;;;4.35;;
69750;SDS011;57335;52.288;6.056;2023-04-05T14:30:40;9.48;;;4.32;;
69750;SDS011;57335;52.288;6.056;2023-04-05T14:33:07;10.07;;;4.20;;
69750;SDS011;57335;52.288;6.056;2023-04-05T14:35:33;10.32;;;4.32;;
69750;SDS011;57335;52.288;6.056;2023-04-05T14:38:00;10.13;;;4.53;;
69750;SDS011;57335;52.288;6.056;2023-04-05T14:40:26;10.10;;;4.60;;
69750;SDS011;57335;52.288;6.056;2023-04-05T14:42:53;9.32;;;4.30;;
69750;SDS011;57335;52.288;6.056;2023-04-05T14:45:19;10.18;;;4.65;;
69750;SDS011;57335;52.288;6.056;2023-04-05T14:47:46;10.70;;;4.40;;
69750;SDS011;57335;52.288;6.056;2023-04-05T14:50:12;11.25;;;4.10;;
69750;SDS011;57335;52.288;6.056;2023-04-05T14:52:39;10.30;;;4.53;;
69750;SDS011;57335;52.288;6.056;2023-04-05T14:55:05;9.40;;;4.38;;
69750;SDS011;57335;52.288;6.056;2023-04-05T14:57:32;11.20;;;4.57;;
69750;SDS011;57335;52.288;6.056;2023-04-05T14:59:58;10.50;;;4.25;;
69750;SDS011;57335;52.288;6.056;2023-04-05T15:02:25;10.45;;;4.97;;
69750;SDS011;57335;52.288;6.056;2023-04-05T15:04:52;12.18;;;4.75;;
69750;SDS011;57335;52.288;6.056;2023-04-05T15:07:18;9.75;;;4.15;;
69750;SDS011;57335;52.288;6.056;2023-04-05T15:09:45;9.75;;;4.68;;
69750;SDS011;57335;52.288;6.056;2023-04-05T15:12:11;11.98;;;4.97;;
69750;SDS011;57335;52.288;6.056;2023-04-05T15:14:38;11.32;;;4.28;;
69750;SDS011;57335;52.288;6.056;2023-04-05T15:17:04;10.02;;;4.20;;
69750;SDS011;57335;52.288;6.056;2023-04-05T15:19:31;10.00;;;4.53;;
69750;SDS011;57335;52.288;6.056;2023-04-05T15:21:57;10.05;;;4.47;;
69750;SDS011;57335;52.288;6.056;2023-04-05T15:24:23;12.20;;;5.13;;
69750;SDS011;57335;52.288;6.056;2023-04-05T15:26:50;10.15;;;4.40;;
69750;SDS011;57335;52.288;6.056;2023-04-05T15:29:16;10.68;;;4.50;;
69750;SDS011;57335;52.288;6.056;2023-04-05T15:31:43;10.15;;;4.50;;
69750;SDS011;57335;52.288;6.056;2023-04-05T15:34:09;11.00;;;5.00;;
69750;SDS011;57335;52.288;6.056;2023-04-05T15:36:36;9.38;;;4.47;;
69750;SDS011;57335;52.288;6.056;2023-04-05T15:39:02;10.57;;;4.90;;
69750;SDS011;57335;52.288;6.056;2023-04-05T15:41:28;10.82;;;4.57;;
69750;SDS011;57335;52.288;6.056;2023-04-05T15:43:56;11.27;;;5.03;;
69750;SDS011;57335;52.288;6.056;2023-04-05T15:46:23;10.68;;;4.65;;
69750;SDS011;57335;52.288;6.056;2023-04-05T15:48:50;10.77;;;4.60;;
69750;SDS011;57335;52.288;6.056;2023-04-05T15:51:16;11.40;;;4.88;;
69750;SDS011;57335;52.288;6.056;2023-04-05T15:53:43;11.43;;;4.82;;
69750;SDS011;57335;52.288;6.056;2023-04-05T15:56:09;10.65;;;4.65;;
69750;SDS011;57335;52.288;6.056;2023-04-05T15:58:35;9.88;;;4.85;;
69750;SDS011;57335;52.288;6.056;2023-04-05T16:01:02;12.82;;;4.88;;